Time;durP1;ratioP1;P1;durP2;ratioP2;P2;SDS_P1;SDS_P2;PMS_P1;PMS_P2;Temp;Humidity;BMP_temperature;BMP_pressure;BME280_temperature;BME280_humidity;BME280_pressure;Samples;Min_cycle;Max_cycle;Signal;HPM_P1;HPM_P2
2023/03/03 00:01:49;;;;;;;12.1;8.6;;;;;;;2.73;89.72852;937.4799;;;;
2023/03/03 00:04:20;;;;;;;12;8.3;;;;;;;2.51;91.26953;937.5033;;;;
2023/03/03 00:06:45;;;;;;;11.3;8.1;;;;;;;2.64;91.31934;937.5414;;;;
2023/03/03 00:09:13;;;;;;;11.6;8.2;;;;;;;2.67;90.67676;937.5176;;;;
2023/03/03 00:11:54;;;;;;;12;8.8;;;;;;;2.63;90.67871;937.486;;;;
2023/03/03 00:14:24;;;;;;;13.2;9.2;;;;;;;2.67;90.78711;937.5142;;;;
2023/03/03 00:16:52;;;;;;;11.8;8.6;;;;;;;2.64;90.85059;937.5101;;;;
2023/03/03 00:19:23;;;;;;;11.4;8.1;;;;;;;2.67;90.39648;937.5145;;;;
2023/03/03 00:21:48;;;;;;;17.7;15.8;;;;;;;2.7;90.56152;937.4944;;;;
2023/03/03 00:24:17;;;;;;;13;9;;;;;;;2.72;90.33008;937.4677;;;;
2023/03/03 00:26:42;;;;;;;13;8.2;;;;;;;2.68;90.05078;937.447;;;;
2023/03/03 00:29:09;;;;;;;12.9;8.4;;;;;;;2.62;90.37402;937.4384;;;;
2023/03/03 00:31:56;;;;;;;11.2;8.2;;;;;;;2.59;90.61426;937.4545;;;;
2023/03/03 00:34:25;;;;;;;11.9;8.8;;;;;;;2.66;90.77539;937.5103;;;;
2023/03/03 00:36:58;;;;;;;12;8.5;;;;;;;2.64;90.60352;937.5692;;;;
2023/03/03 00:39:24;;;;;;;12.9;9;;;;;;;2.66;90.91016;937.5619;;;;
2023/03/03 00:41:52;;;;;;;11.9;8.1;;;;;;;2.61;90.89844;937.5292;;;;
2023/03/03 00:47:32;;;;;;;9.6;7.5;;;;;;;2.69;90.12012;937.5442;;;;
2023/03/03 00:49:56;;;;;;;10.2;7.3;;;;;;;2.81;89.93359;937.5059;;;;
2023/03/03 00:52:21;;;;;;;10.2;7.1;;;;;;;2.85;89.37891;937.5676;;;;
2023/03/03 00:54:51;;;;;;;10;7.7;;;;;;;2.81;89.53027;937.6096;;;;
2023/03/03 00:57:16;;;;;;;10.3;7.8;;;;;;;2.9;89.60352;937.5616;;;;
2023/03/03 00:59:41;;;;;;;10.6;7.3;;;;;;;2.97;89.35156;937.5707;;;;
2023/03/03 01:02:06;;;;;;;9;7.1;;;;;;;2.97;89.19238;937.635;;;;
2023/03/03 01:04:37;;;;;;;10.4;7.5;;;;;;;3.07;88.82031;937.6641;;;;
2023/03/03 01:07:02;;;;;;;9.3;7;;;;;;;3.16;88.50488;937.6526;;;;
2023/03/03 01:09:27;;;;;;;10.5;7.4;;;;;;;3.2;88.29883;937.6105;;;;
2023/03/03 01:12:00;;;;;;;10.8;7.7;;;;;;;3.23;88.11426;937.6442;;;;
2023/03/03 01:14:26;;;;;;;10.7;7.5;;;;;;;3.2;88.37793;937.6114;;;;
2023/03/03 01:16:51;;;;;;;10.4;7.8;;;;;;;3.23;88.29297;937.5396;;;;
2023/03/03 01:19:26;;;;;;;10.2;7.5;;;;;;;3.19;88.33105;937.6047;;;;
2023/03/03 01:21:58;;;;;;;10.1;7.9;;;;;;;3.23;88.16992;937.6167;;;;
2023/03/03 01:24:27;;;;;;;10.5;7.4;;;;;;;3.25;88.46582;937.5955;;;;
2023/03/03 01:26:53;;;;;;;11;7.6;;;;;;;3.17;88.12305;937.5733;;;;
2023/03/03 01:29:18;;;;;;;11.4;7.7;;;;;;;3.03;88.43164;937.6108;;;;
2023/03/03 01:31:46;;;;;;;10.5;7.4;;;;;;;3.08;88.35156;937.5825;;;;
2023/03/03 01:34:11;;;;;;;8.9;7;;;;;;;3.14;88.40039;937.5833;;;;
2023/03/03 01:36:36;;;;;;;10;6.9;;;;;;;3.22;88.05566;937.5787;;;;
2023/03/03 01:39:02;;;;;;;11.5;7.7;;;;;;;3.27;88.15723;937.5513;;;;
2023/03/03 01:41:27;;;;;;;10.7;7.5;;;;;;;3.31;88.4541;937.6108;;;;
2023/03/03 01:43:56;;;;;;;10;7.1;;;;;;;3.34;88.3623;937.5538;;;;
2023/03/03 01:46:21;;;;;;;9.4;7.2;;;;;;;3.34;87.90234;937.5577;;;;
2023/03/03 01:48:47;;;;;;;9.7;6.7;;;;;;;3.2;88.00684;937.5709;;;;
2023/03/03 01:51:12;;;;;;;9.2;6.8;;;;;;;3.17;88.12305;937.5496;;;;
2023/03/03 01:53:37;;;;;;;8.6;6.5;;;;;;;3.11;88.1123;937.5326;;;;
2023/03/03 01:56:03;;;;;;;10.2;6.9;;;;;;;3.16;88.38086;937.562;;;;
2023/03/03 01:58:28;;;;;;;8.2;6.7;;;;;;;3.21;88.42383;937.5563;;;;
2023/03/03 02:00:53;;;;;;;8.4;6.5;;;;;;;3.23;88.39258;937.5134;;;;
2023/03/03 02:03:22;;;;;;;10.5;6.5;;;;;;;3.12;87.76563;937.5258;;;;
2023/03/03 02:05:47;;;;;;;8;6;;;;;;;2.95;88.28027;937.5439;;;;
2023/03/03 02:08:14;;;;;;;8.6;6;;;;;;;3.01;88.32715;937.5455;;;;
2023/03/03 02:10:40;;;;;;;10;6.9;;;;;;;3.1;88.24316;937.5023;;;;
2023/03/03 02:15:55;;;;;;;8.6;6.6;;;;;;;2.91;88.63184;937.5101;;;;
2023/03/03 02:18:21;;;;;;;7.5;5.7;;;;;;;2.9;88.77539;937.5287;;;;
2023/03/03 02:20:46;;;;;;;7.9;5.8;;;;;;;3;88.59277;937.5967;;;;
2023/03/03 02:23:11;;;;;;;9.1;6.3;;;;;;;3.07;88.2373;937.5753;;;;
2023/03/03 02:25:37;;;;;;;8.4;6;;;;;;;3.13;87.44238;937.5452;;;;
2023/03/03 02:28:02;;;;;;;7.8;5.2;;;;;;;3.09;86.67188;937.5683;;;;
2023/03/03 02:30:27;;;;;;;8.5;5.3;;;;;;;2.87;86.79395;937.5425;;;;
2023/03/03 02:32:57;;;;;;;7.3;5.1;;;;;;;2.76;87.13086;937.5421;;;;
2023/03/03 02:35:27;;;;;;;6.8;5.3;;;;;;;2.7;87.68945;937.5948;;;;
2023/03/03 02:37:52;;;;;;;6.3;4.8;;;;;;;2.81;87.64648;937.5867;;;;
2023/03/03 02:40:20;;;;;;;6.1;4.9;;;;;;;2.73;87.49512;937.5529;;;;
2023/03/03 02:42:45;;;;;;;6.9;5.2;;;;;;;2.78;87.66309;937.5932;;;;
2023/03/03 02:45:16;;;;;;;6.2;4.9;;;;;;;2.85;87.39453;937.5661;;;;
2023/03/03 02:47:47;;;;;;;7.1;4.9;;;;;;;2.98;87.14355;937.5261;;;;
2023/03/03 02:50:17;;;;;;;6.2;4.9;;;;;;;3.07;86.65527;937.5475;;;;
2023/03/03 02:52:45;;;;;;;7.4;5.1;;;;;;;3.1;86.53906;937.4717;;;;
2023/03/03 02:55:10;;;;;;;7.7;5;;;;;;;3.16;86.16895;937.5722;;;;
2023/03/03 02:57:39;;;;;;;6.4;5;;;;;;;3.15;86.05469;937.5938;;;;
2023/03/03 03:00:04;;;;;;;7.5;5.2;;;;;;;3.2;86.04297;937.5886;;;;
2023/03/03 03:02:29;;;;;;;6.7;4.6;;;;;;;2.99;86.01172;937.5359;;;;
2023/03/03 03:04:59;;;;;;;7.2;5;;;;;;;2.79;87.08008;937.6196;;;;
2023/03/03 03:07:35;;;;;;;6.6;4.7;;;;;;;2.81;87.60156;937.6;;;;
2023/03/03 03:10:11;;;;;;;6.3;4.9;;;;;;;2.93;87.39063;937.5975;;;;
2023/03/03 03:12:37;;;;;;;5.5;4.4;;;;;;;3.03;87.21094;937.5527;;;;
2023/03/03 03:15:02;;;;;;;6.7;5.2;;;;;;;2.92;86.93945;937.5334;;;;
2023/03/03 03:17:34;;;;;;;6.4;4.7;;;;;;;2.85;87.3291;937.5637;;;;
2023/03/03 03:19:59;;;;;;;7.8;5.6;;;;;;;2.89;87.5957;937.581;;;;
2023/03/03 03:22:24;;;;;;;6.8;5.3;;;;;;;2.84;87.08008;937.5447;;;;
2023/03/03 03:24:54;;;;;;;6.5;4.7;;;;;;;2.79;86.7998;937.5181;;;;
2023/03/03 03:27:20;;;;;;;6.2;5;;;;;;;2.79;87.04688;937.5331;;;;
2023/03/03 03:29:48;;;;;;;6;4.7;;;;;;;2.8;87.08203;937.5042;;;;
2023/03/03 03:32:13;;;;;;;6;4.6;;;;;;;2.87;87.09668;937.5086;;;;
2023/03/03 03:34:42;;;;;;;6.4;4.5;;;;;;;2.84;87.09082;937.448;;;;
2023/03/03 03:37:08;;;;;;;5.9;4.5;;;;;;;2.89;87.09082;937.5529;;;;
2023/03/03 03:39:32;;;;;;;6.8;4.7;;;;;;;2.89;86.97949;937.5347;;;;
2023/03/03 03:41:58;;;;;;;6;4.5;;;;;;;2.83;87.07617;937.4725;;;;
2023/03/03 03:44:24;;;;;;;6.8;4.9;;;;;;;2.8;87.57715;937.5039;;;;
2023/03/03 03:46:51;;;;;;;5.4;4.5;;;;;;;2.76;87.94922;937.5358;;;;
2023/03/03 03:49:16;;;;;;;6.1;4.6;;;;;;;2.78;87.80859;937.48;;;;
2023/03/03 03:51:42;;;;;;;7;4.9;;;;;;;2.79;87.94336;937.3386;;;;
2023/03/03 03:54:07;;;;;;;6.1;4.6;;;;;;;2.81;88.17383;937.3987;;;;
2023/03/03 03:56:34;;;;;;;6.5;4.9;;;;;;;2.89;87.84277;937.3617;;;;
2023/03/03 03:59:00;;;;;;;6.4;4.7;;;;;;;2.89;87.79785;937.4192;;;;
2023/03/03 04:02:36;;;;;;;6.1;4.5;;;;;;;2.91;87.61035;937.4031;;;;
2023/03/03 04:05:09;;;;;;;6.8;4.7;;;;;;;2.62;88.03125;937.389;;;;
2023/03/03 04:07:39;;;;;;;5.7;4.4;;;;;;;2.52;88.80664;937.3748;;;;
2023/03/03 04:10:16;;;;;;;6.2;4.8;;;;;;;2.41;89.36621;937.3259;;;;
2023/03/03 04:12:40;;;;;;;5.5;4.3;;;;;;;2.45;89.63379;937.3409;;;;
2023/03/03 04:15:10;;;;;;;5.7;4.5;;;;;;;2.46;89.2207;937.2964;;;;
2023/03/03 04:17:35;;;;;;;5.7;4.4;;;;;;;2.55;89.1748;937.2017;;;;
2023/03/03 04:20:01;;;;;;;5.7;4.2;;;;;;;2.66;88.51172;937.2578;;;;
2023/03/03 04:22:25;;;;;;;6.3;4.3;;;;;;;2.75;87.8125;937.2517;;;;
2023/03/03 04:24:51;;;;;;;5.9;4.6;;;;;;;2.61;87.93945;937.2558;;;;
2023/03/03 04:27:16;;;;;;;5.7;4.6;;;;;;;2.54;88.50977;937.2774;;;;
2023/03/03 04:29:47;;;;;;;6.6;4.6;;;;;;;2.55;88.68164;937.2253;;;;
2023/03/03 04:32:17;;;;;;;7.3;5.2;;;;;;;2.57;89.09766;937.2211;;;;
2023/03/03 04:34:41;;;;;;;6.6;5.1;;;;;;;2.53;89.38184;937.2056;;;;
2023/03/03 04:37:08;;;;;;;7.5;5.2;;;;;;;2.58;89.34668;937.2026;;;;
2023/03/03 04:39:33;;;;;;;6.5;4.9;;;;;;;2.69;89.32422;937.2037;;;;
2023/03/03 04:42:01;;;;;;;7;5.6;;;;;;;2.64;88.73047;937.22;;;;
2023/03/03 04:44:26;;;;;;;6;4.5;;;;;;;2.54;89.14844;937.2145;;;;
2023/03/03 04:46:54;;;;;;;6.7;5.1;;;;;;;2.6;89.50684;937.2206;;;;
2023/03/03 04:49:19;;;;;;;5.9;4.5;;;;;;;2.67;88.90527;937.1953;;;;
2023/03/03 04:51:45;;;;;;;7.2;4.7;;;;;;;2.79;88.52637;937.2458;;;;
2023/03/03 04:54:10;;;;;;;7.1;5.2;;;;;;;2.74;87.84473;937.1703;;;;
2023/03/03 04:56:38;;;;;;;6.7;5.4;;;;;;;2.76;88.22949;937.2472;;;;
2023/03/03 04:59:03;;;;;;;6.9;4.9;;;;;;;2.71;88.70215;937.2447;;;;
2023/03/03 05:01:28;;;;;;;7.9;5.3;;;;;;;2.66;89.30762;937.243;;;;
2023/03/03 05:03:56;;;;;;;8.1;5.5;;;;;;;2.76;89.13965;937.2521;;;;
2023/03/03 05:06:22;;;;;;;6.5;5;;;;;;;2.9;88.78711;937.2183;;;;
2023/03/03 05:08:49;;;;;;;8.7;6.4;;;;;;;2.94;88.41309;937.1967;;;;
2023/03/03 05:11:16;;;;;;;9;6.4;;;;;;;2.99;88.44629;937.2063;;;;
2023/03/03 05:13:41;;;;;;;8.1;5.1;;;;;;;2.97;88.27441;937.1806;;;;
2023/03/03 05:16:11;;;;;;;6.3;4.4;;;;;;;2.95;88.16797;937.1838;;;;
2023/03/03 05:22:36;;;;;;;6.1;4.8;;;;;;;2.8;88.74121;937.1936;;;;
2023/03/03 05:25:46;;;;;;;7.8;5.1;;;;;;;2.82;88.52148;937.2426;;;;
2023/03/03 05:28:11;;;;;;;5.7;4.6;;;;;;;3.01;88.0127;937.2319;;;;
2023/03/03 05:30:43;;;;;;;6.5;4.9;;;;;;;3.15;87.34668;937.2731;;;;
2023/03/03 05:36:38;;;;;;;6.7;5.1;;;;;;;2.82;88.0498;937.168;;;;
2023/03/03 05:39:07;;;;;;;5.5;4.5;;;;;;;2.89;88.59375;937.1422;;;;
2023/03/03 05:41:35;;;;;;;7;5;;;;;;;3.04;88.09668;937.2658;;;;
2023/03/03 05:43:57;;;;;;;6.5;5;;;;;;;3.17;87.84277;937.29;;;;
2023/03/03 05:46:25;;;;;;;7;5.1;;;;;;;3.24;87.19727;937.2985;;;;
2023/03/03 05:48:50;;;;;;;6.7;4.8;;;;;;;3.26;87.04395;937.3527;;;;
2023/03/03 05:51:17;;;;;;;8.7;5.4;;;;;;;3.33;86.75293;937.347;;;;
2023/03/03 05:56:50;;;;;;;8.3;6.1;;;;;;;3.3;87.43262;937.4051;;;;
2023/03/03 05:59:18;;;;;;;13.3;8.1;;;;;;;3.43;87.49219;937.3911;;;;
2023/03/03 06:01:43;;;;;;;11.1;7.4;;;;;;;3.5;87.18164;937.3596;;;;
2023/03/03 06:04:12;;;;;;;13;8.3;;;;;;;3.59;86.87402;937.4043;;;;
2023/03/03 06:06:42;;;;;;;11.1;7.9;;;;;;;3.36;86.87109;937.4119;;;;
2023/03/03 06:09:07;;;;;;;12.6;8.9;;;;;;;3.38;87.32617;937.4394;;;;
2023/03/03 06:11:33;;;;;;;13.8;8.9;;;;;;;3.38;87.3916;937.426;;;;
2023/03/03 06:13:58;;;;;;;11.3;7.8;;;;;;;3.49;87.02441;937.4114;;;;
2023/03/03 06:16:27;;;;;;;14.6;9.2;;;;;;;3.57;86.66797;937.476;;;;
2023/03/03 06:18:52;;;;;;;12.7;7.7;;;;;;;3.59;86.54883;937.483;;;;
2023/03/03 06:21:19;;;;;;;10.8;7.8;;;;;;;3.63;86.43262;937.5461;;;;
2023/03/03 06:23:44;;;;;;;12.3;8.6;;;;;;;3.68;86.52148;937.551;;;;
2023/03/03 06:26:10;;;;;;;12;8.8;;;;;;;3.69;86.49902;937.6078;;;;
2023/03/03 06:28:35;;;;;;;12.1;8.4;;;;;;;3.63;86.81445;937.5864;;;;
2023/03/03 06:31:00;;;;;;;12.3;7.8;;;;;;;3.6;87.31445;937.5848;;;;
2023/03/03 06:33:27;;;;;;;10.2;7.2;;;;;;;3.67;87.55371;937.634;;;;
2023/03/03 06:35:53;;;;;;;10.3;7.2;;;;;;;3.77;87.45215;937.6179;;;;
2023/03/03 06:38:20;;;;;;;9.9;7.3;;;;;;;3.86;87.05273;937.696;;;;
2023/03/03 06:40:45;;;;;;;10.1;7.2;;;;;;;3.88;86.58496;937.654;;;;
2023/03/03 06:43:12;;;;;;;11.5;6.8;;;;;;;3.97;86.62695;937.7942;;;;
2023/03/03 06:45:37;;;;;;;9.8;7.4;;;;;;;4.01;86.27344;937.7924;;;;
2023/03/03 06:48:07;;;;;;;10.3;7.2;;;;;;;4.07;85.94629;937.8022;;;;
2023/03/03 06:50:39;;;;;;;10;6.9;;;;;;;4.07;85.66504;937.7676;;;;
2023/03/03 06:53:07;;;;;;;11.8;7.7;;;;;;;4.1;85.91113;937.8491;;;;
2023/03/03 06:55:38;;;;;;;10.4;7.8;;;;;;;4.13;85.65723;937.9005;;;;
2023/03/03 06:58:03;;;;;;;10.3;7.6;;;;;;;4.18;85.58789;937.8736;;;;
2023/03/03 07:00:38;;;;;;;10.8;7.2;;;;;;;4.22;85.02148;937.9431;;;;
2023/03/03 07:03:05;;;;;;;10.6;7.4;;;;;;;4.19;85.0625;937.9796;;;;
2023/03/03 07:05:33;;;;;;;11.7;7.6;;;;;;;4.21;84.96289;938.0112;;;;
2023/03/03 07:08:01;;;;;;;11.8;7.7;;;;;;;4.21;84.74023;937.9325;;;;
2023/03/03 07:10:29;;;;;;;12.2;8.4;;;;;;;4.08;84.62305;937.9949;;;;
2023/03/03 07:12:57;;;;;;;13.9;8.6;;;;;;;4.09;85.12207;938.0293;;;;
2023/03/03 07:15:28;;;;;;;11.3;8;;;;;;;4.08;85.37695;938.0106;;;;
2023/03/03 07:18:03;;;;;;;12.2;8.3;;;;;;;4.09;85.53613;938.0928;;;;
2023/03/03 07:20:26;;;;;;;11.3;8.2;;;;;;;4.09;85.19824;938.0928;;;;
2023/03/03 07:22:58;;;;;;;11.9;8;;;;;;;4.1;85.2793;938.1508;;;;
2023/03/03 07:25:27;;;;;;;12.9;8.8;;;;;;;4.04;85.51563;938.1692;;;;
2023/03/03 07:27:57;;;;;;;14.3;8.8;;;;;;;4.1;85.85449;938.255;;;;
2023/03/03 07:30:27;;;;;;;12;8.5;;;;;;;4.22;85.69629;938.2441;;;;
2023/03/03 07:32:58;;;;;;;14.5;8.5;;;;;;;4.31;85.23242;938.2896;;;;
2023/03/03 07:35:26;;;;;;;12.6;9;;;;;;;4.28;84.8877;938.2808;;;;
2023/03/03 07:37:57;;;;;;;12.6;9.2;;;;;;;4.3;85.11621;938.2497;;;;
2023/03/03 07:40:27;;;;;;;15.4;9.7;;;;;;;4.28;85.21387;938.3107;;;;
2023/03/03 07:42:53;;;;;;;13.9;9.2;;;;;;;4.29;84.91406;938.334;;;;
2023/03/03 07:45:18;;;;;;;15.1;9.6;;;;;;;4.29;85.09375;938.3749;;;;
2023/03/03 07:47:47;;;;;;;14.2;9.9;;;;;;;4.27;85.29102;938.3759;;;;
2023/03/03 07:50:12;;;;;;;14;10;;;;;;;4.35;85.23828;938.387;;;;
2023/03/03 07:52:40;;;;;;;16.1;10.4;;;;;;;4.33;85.10059;938.4376;;;;
2023/03/03 07:55:11;;;;;;;15.6;10.2;;;;;;;4.35;84.99219;938.4122;;;;
2023/03/03 07:57:36;;;;;;;21.1;12.9;;;;;;;4.32;85.3584;938.4412;;;;
2023/03/03 08:00:01;;;;;;;21.2;13.6;;;;;;;4.32;85.43652;938.4442;;;;
2023/03/03 08:02:31;;;;;;;18.3;12.5;;;;;;;4.29;85.71289;938.3718;;;;
2023/03/03 08:05:02;;;;;;;18.4;12.7;;;;;;;4.31;85.12012;938.5363;;;;
2023/03/03 08:07:27;;;;;;;19.3;13.3;;;;;;;4.38;85.01953;938.4967;;;;
2023/03/03 08:09:52;;;;;;;21.8;14.1;;;;;;;4.36;84.71387;938.4821;;;;
2023/03/03 08:12:18;;;;;;;21.1;14.5;;;;;;;4.38;85.07813;938.4291;;;;
2023/03/03 08:14:42;;;;;;;23;14.3;;;;;;;4.5;85.16895;938.4467;;;;
2023/03/03 08:17:07;;;;;;;20.5;13.8;;;;;;;4.53;84.75977;938.3681;;;;
2023/03/03 08:19:33;;;;;;;21.6;14.3;;;;;;;4.49;84.40137;938.4896;;;;
2023/03/03 08:21:58;;;;;;;20.9;13.4;;;;;;;4.54;84.66016;938.4433;;;;
2023/03/03 08:24:27;;;;;;;20.1;14;;;;;;;4.59;84.55664;938.4163;;;;
2023/03/03 08:26:53;;;;;;;21.7;14;;;;;;;4.59;84.69336;938.4363;;;;
2023/03/03 08:29:20;;;;;;;20.1;13.9;;;;;;;4.71;84.41113;938.4425;;;;
2023/03/03 08:31:45;;;;;;;22.3;14.7;;;;;;;4.79;84.29004;938.4843;;;;
2023/03/03 08:34:14;;;;;;;24.6;15.3;;;;;;;4.89;83.97363;938.5066;;;;
2023/03/03 08:36:39;;;;;;;22.6;14.9;;;;;;;4.98;83.73145;938.5103;;;;
2023/03/03 08:39:11;;;;;;;25.7;14.3;;;;;;;4.95;83.27539;938.5072;;;;
2023/03/03 08:41:43;;;;;;;23.5;14.8;;;;;;;5.03;82.81836;938.5486;;;;
2023/03/03 08:44:06;;;;;;;23;15.2;;;;;;;5.17;82.52832;938.5211;;;;
2023/03/03 08:46:35;;;;;;;22.3;14.7;;;;;;;5.21;81.9375;938.5519;;;;
2023/03/03 08:49:04;;;;;;;23;14.6;;;;;;;5.27;81.66797;938.6309;;;;
2023/03/03 08:51:29;;;;;;;22.5;15;;;;;;;5.32;81.40723;938.6609;;;;
2023/03/03 08:53:58;;;;;;;23.7;14.9;;;;;;;5.35;80.88477;938.6619;;;;
2023/03/03 08:56:27;;;;;;;21.8;14.6;;;;;;;5.28;81.09473;938.6398;;;;
2023/03/03 08:58:52;;;;;;;22.7;15.2;;;;;;;5.36;81.4375;938.7053;;;;
2023/03/03 09:01:21;;;;;;;24.9;15.6;;;;;;;5.45;81.03906;938.6738;;;;
2023/03/03 09:03:46;;;;;;;25.2;15.8;;;;;;;5.48;80.63574;938.7061;;;;
2023/03/03 09:06:16;;;;;;;25.8;15.8;;;;;;;5.39;80.21289;938.7567;;;;
2023/03/03 09:08:41;;;;;;;24.4;16.2;;;;;;;5.07;81.42676;938.7548;;;;
2023/03/03 09:11:06;;;;;;;24.5;16.6;;;;;;;5.09;81.94922;938.7617;;;;
2023/03/03 09:13:32;;;;;;;27.5;17.2;;;;;;;5.05;82.05469;938.7723;;;;
2023/03/03 09:16:05;;;;;;;28;17.4;;;;;;;5.03;82.8291;938.8372;;;;
2023/03/03 09:18:38;;;;;;;28;17.9;;;;;;;5.09;83.08789;938.7869;;;;
2023/03/03 09:21:04;;;;;;;28.5;17.9;;;;;;;5.2;82.54688;938.8796;;;;
2023/03/03 09:23:28;;;;;;;26.4;18;;;;;;;5.31;81.60938;938.8287;;;;
2023/03/03 09:25:53;;;;;;;24.7;15.9;;;;;;;5.23;81.99805;938.9241;;;;
2023/03/03 09:28:18;;;;;;;27.3;17;;;;;;;5.24;81.86426;938.9252;;;;
2023/03/03 09:30:46;;;;;;;28.1;17;;;;;;;5.31;81.6875;938.9487;;;;
2023/03/03 09:33:11;;;;;;;25.7;17.1;;;;;;;5.4;81.29883;938.9758;;;;
2023/03/03 09:35:37;;;;;;;26;17.9;;;;;;;5.51;80.90234;938.9935;;;;
2023/03/03 09:38:01;;;;;;;27.4;17.2;;;;;;;5.57;80.88965;938.9447;;;;
2023/03/03 09:40:26;;;;;;;27.1;17.5;;;;;;;5.54;80.06055;939.0055;;;;
2023/03/03 09:42:51;;;;;;;27.9;17.9;;;;;;;5.64;80.0791;938.9684;;;;
2023/03/03 09:45:17;;;;;;;28.6;17.8;;;;;;;5.8;79.67871;938.9256;;;;
2023/03/03 09:47:42;;;;;;;26.5;17.4;;;;;;;5.89;79.59473;938.9267;;;;
2023/03/03 09:50:07;;;;;;;28.5;18.1;;;;;;;5.77;79.30176;938.9493;;;;
2023/03/03 09:52:35;;;;;;;26.3;17.5;;;;;;;5.89;78.90723;938.8873;;;;
2023/03/03 09:55:00;;;;;;;29.7;18.7;;;;;;;5.92;78.24512;938.9208;;;;
2023/03/03 09:57:25;;;;;;;31;19.4;;;;;;;5.82;78.56641;938.8678;;;;
2023/03/03 09:59:50;;;;;;;30.7;19.3;;;;;;;5.99;78.15527;938.9179;;;;
2023/03/03 10:02:19;;;;;;;32.7;22.1;;;;;;;6.11;76.86719;938.905;;;;
2023/03/03 10:04:47;;;;;;;34.7;21.5;;;;;;;6.23;76.3916;938.9211;;;;
2023/03/03 10:07:14;;;;;;;34.6;22.6;;;;;;;6.32;76.17188;938.8358;;;;
2023/03/03 10:09:40;;;;;;;32.2;20.4;;;;;;;6.03;76.23145;938.9131;;;;
2023/03/03 10:12:06;;;;;;;31.2;20.3;;;;;;;6.2;76.34082;938.9009;;;;
2023/03/03 10:14:31;;;;;;;35.7;21.8;;;;;;;6.48;75.65625;938.8869;;;;
2023/03/03 10:17:00;;;;;;;32.6;20.5;;;;;;;6.53;74.05957;938.8753;;;;
2023/03/03 10:19:27;;;;;;;35.8;22.5;;;;;;;6.61;74.18652;938.8557;;;;
2023/03/03 10:21:51;;;;;;;40;24.1;;;;;;;6.82;73.05469;938.8435;;;;
2023/03/03 10:24:17;;;;;;;40.3;25;;;;;;;6.93;71.92969;938.8897;;;;
2023/03/03 10:26:42;;;;;;;33.9;21.4;;;;;;;7.05;71.75684;938.8287;;;;
2023/03/03 10:29:10;;;;;;;33.5;21.9;;;;;;;7.08;72.08203;938.824;;;;
2023/03/03 10:31:35;;;;;;;36.8;22.4;;;;;;;7.05;72.00586;938.8904;;;;
2023/03/03 10:34:00;;;;;;;36.9;22.3;;;;;;;7.13;71.85156;938.8655;;;;
2023/03/03 10:36:25;;;;;;;31.5;20.1;;;;;;;7.11;72.88086;938.8848;;;;
2023/03/03 10:38:54;;;;;;;30.7;19.3;;;;;;;7.16;72.91113;938.9336;;;;
2023/03/03 10:41:20;;;;;;;34.4;20.2;;;;;;;7.12;72.6084;938.9405;;;;
2023/03/03 10:43:45;;;;;;;31;19.8;;;;;;;7.24;72.66406;938.9856;;;;
2023/03/03 10:46:11;;;;;;;28.4;18.6;;;;;;;7.32;72.54004;938.9778;;;;
2023/03/03 10:48:36;;;;;;;27.8;18.3;;;;;;;7.34;72.54492;938.9744;;;;
2023/03/03 10:51:05;;;;;;;30.4;18.8;;;;;;;7.36;72.6377;939.0198;;;;
2023/03/03 10:53:30;;;;;;;34.2;21.9;;;;;;;7.31;72.05176;938.942;;;;
2023/03/03 10:55:55;;;;;;;32.7;21.6;;;;;;;7.27;72.27246;938.9775;;;;
2023/03/03 10:58:21;;;;;;;31.3;19.7;;;;;;;7.29;71.85547;939.027;;;;
2023/03/03 11:00:48;;;;;;;30.4;19.6;;;;;;;7.39;71.52246;938.985;;;;
2023/03/03 11:03:18;;;;;;;28.8;18.5;;;;;;;7.53;70.98828;938.947;;;;
2023/03/03 11:05:43;;;;;;;26.9;17.8;;;;;;;7.52;71.31543;938.9461;;;;
2023/03/03 11:08:09;;;;;;;26.6;17.7;;;;;;;7.69;71.62793;938.9841;;;;
2023/03/03 11:10:33;;;;;;;29.7;18.2;;;;;;;7.79;70.27148;938.9228;;;;
2023/03/03 11:13:07;;;;;;;28.7;19.3;;;;;;;7.76;71.43555;938.9642;;;;
2023/03/03 11:15:38;;;;;;;31.2;19.3;;;;;;;7.81;70.5127;938.9711;;;;
2023/03/03 11:18:10;;;;;;;32;20;;;;;;;8.02;70.34277;938.8583;;;;
2023/03/03 11:20:38;;;;;;;28.6;17.9;;;;;;;7.93;70.69238;938.9141;;;;
2023/03/03 11:23:03;;;;;;;31.8;20.8;;;;;;;8.19;69.48438;938.8948;;;;
2023/03/03 11:25:28;;;;;;;35.6;21.6;;;;;;;8.1;70.00488;938.8329;;;;
2023/03/03 11:27:55;;;;;;;31.6;19.3;;;;;;;8.27;68.87305;938.8339;;;;
2023/03/03 11:30:24;;;;;;;34.8;21.2;;;;;;;8.3;68.86719;938.8251;;;;
2023/03/03 11:32:52;;;;;;;33.7;20.5;;;;;;;8.42;68.33008;938.8286;;;;
2023/03/03 11:35:17;;;;;;;32.5;21.5;;;;;;;8.62;67.23535;938.7849;;;;
2023/03/03 11:37:42;;;;;;;39.4;22.9;;;;;;;8.54;67.29297;938.7864;;;;
2023/03/03 11:40:08;;;;;;;36.7;22.9;;;;;;;8.63;67.11328;938.6978;;;;
2023/03/03 11:42:39;;;;;;;34.6;21.7;;;;;;;8.77;66.21387;938.7106;;;;
2023/03/03 11:45:08;;;;;;;34.7;21.8;;;;;;;8.77;67.82813;938.6945;;;;
2023/03/03 11:47:35;;;;;;;33.5;21.8;;;;;;;8.75;67.69922;938.7332;;;;
2023/03/03 11:50:01;;;;;;;33.5;21.5;;;;;;;8.89;66.66211;938.7015;;;;
2023/03/03 11:52:26;;;;;;;35.4;22.3;;;;;;;8.97;65.91602;938.6831;;;;
2023/03/03 11:54:52;;;;;;;34.9;21.9;;;;;;;9.12;65.58398;938.5895;;;;
2023/03/03 11:57:20;;;;;;;33.2;21.4;;;;;;;9.25;65.53418;938.6252;;;;
2023/03/03 11:59:45;;;;;;;34;21.8;;;;;;;9.14;65.48438;938.5302;;;;
2023/03/03 12:02:10;;;;;;;35.1;22.8;;;;;;;8.83;66.7793;938.6213;;;;
2023/03/03 12:04:38;;;;;;;35;22.2;;;;;;;8.65;66.91211;938.6617;;;;
2023/03/03 12:07:03;;;;;;;36;21.4;;;;;;;8.63;67.87207;938.6652;;;;
2023/03/03 12:09:29;;;;;;;34.6;21.6;;;;;;;8.55;67.47461;938.6389;;;;
2023/03/03 12:11:54;;;;;;;38.2;23.6;;;;;;;8.24;68.65332;938.6653;;;;
2023/03/03 12:14:19;;;;;;;37.5;22.8;;;;;;;7.96;69.70898;938.6038;;;;
2023/03/03 12:16:46;;;;;;;37.4;22.8;;;;;;;7.69;71.30957;938.6147;;;;
2023/03/03 12:19:12;;;;;;;37.4;22.5;;;;;;;7.66;72.43848;938.5539;;;;
2023/03/03 12:21:37;;;;;;;36.5;22.6;;;;;;;7.88;71.0127;938.5198;;;;
2023/03/03 12:24:06;;;;;;;37.8;23.2;;;;;;;7.97;70.17578;938.585;;;;
2023/03/03 12:26:31;;;;;;;36.4;22.5;;;;;;;8.14;69.8291;938.5322;;;;
2023/03/03 12:28:56;;;;;;;33.8;21.3;;;;;;;8.21;69.6709;938.6021;;;;
2023/03/03 12:31:22;;;;;;;31.4;21;;;;;;;8.47;69.2002;938.5281;;;;
2023/03/03 12:33:52;;;;;;;33.6;20.9;;;;;;;8.48;69.4082;938.5306;;;;
2023/03/03 12:36:17;;;;;;;34.5;21.4;;;;;;;8.68;67.68945;938.5391;;;;
2023/03/03 12:38:44;;;;;;;32;19.5;;;;;;;8.71;67.3291;938.5364;;;;
2023/03/03 12:41:09;;;;;;;30.8;20.2;;;;;;;8.94;67.58203;938.5119;;;;
2023/03/03 12:43:35;;;;;;;34;20.6;;;;;;;8.59;67.89063;938.508;;;;
2023/03/03 12:46:05;;;;;;;33;21.8;;;;;;;8.53;68.5625;938.5514;;;;
2023/03/03 12:48:30;;;;;;;33.5;21.7;;;;;;;8.52;68.91406;938.4955;;;;
2023/03/03 12:50:57;;;;;;;33.5;21.2;;;;;;;8.8;67.82129;938.5259;;;;
2023/03/03 12:53:20;;;;;;;33.8;20.9;;;;;;;9.05;66.54102;938.509;;;;
2023/03/03 12:55:48;;;;;;;34.3;21.5;;;;;;;9.15;65.71387;938.4875;;;;
2023/03/03 12:58:14;;;;;;;33.5;21;;;;;;;9.02;66.99023;938.4998;;;;
2023/03/03 13:00:39;;;;;;;32.5;21.5;;;;;;;9.13;66.24609;938.4777;;;;
2023/03/03 13:03:09;;;;;;;32.8;21.3;;;;;;;9.14;64.66406;938.4787;;;;
2023/03/03 13:05:38;;;;;;;37;21.8;;;;;;;9.27;65.19727;938.4531;;;;
2023/03/03 13:08:05;;;;;;;33.8;21.8;;;;;;;8.86;65.53223;938.3684;;;;
2023/03/03 13:10:30;;;;;;;39.2;23.4;;;;;;;8.68;67.32422;938.4272;;;;
2023/03/03 13:12:55;;;;;;;36.3;22.4;;;;;;;8.42;67.39746;938.4344;;;;
2023/03/03 13:15:22;;;;;;;36.7;22.8;;;;;;;8.37;67.90039;938.4109;;;;
2023/03/03 13:17:49;;;;;;;37;22.6;;;;;;;8.16;69.37988;938.4216;;;;
2023/03/03 13:20:19;;;;;;;37.3;24.2;;;;;;;8.18;69.95996;938.4656;;;;
2023/03/03 13:22:44;;;;;;;39.6;23.9;;;;;;;8.15;69.70605;938.3945;;;;
2023/03/03 13:25:09;;;;;;;35.7;23.3;;;;;;;8.13;70.14551;938.4219;;;;
2023/03/03 13:27:38;;;;;;;39.2;25.2;;;;;;;7.99;70.79199;938.4537;;;;
2023/03/03 13:30:03;;;;;;;36;23.4;;;;;;;7.62;71.20703;938.4478;;;;
2023/03/03 13:32:32;;;;;;;42.1;25.1;;;;;;;7.26;73.16406;938.468;;;;
2023/03/03 13:34:57;;;;;;;39;24.4;;;;;;;7.36;73.7832;938.4955;;;;
2023/03/03 13:37:22;;;;;;;37.8;24.7;;;;;;;7.54;72.72559;938.4633;;;;
2023/03/03 13:39:48;;;;;;;40;24.8;;;;;;;7.5;73.44434;938.4417;;;;
2023/03/03 13:42:17;;;;;;;37.7;24.3;;;;;;;7.4;74.44727;938.4291;;;;
2023/03/03 13:44:42;;;;;;;37.8;23.3;;;;;;;7.5;73.77246;938.4465;;;;
2023/03/03 13:47:07;;;;;;;41.1;23.8;;;;;;;7.58;73.82031;938.4863;;;;
2023/03/03 13:49:32;;;;;;;37.8;23.5;;;;;;;7.59;73.70898;938.4348;;;;
2023/03/03 13:51:58;;;;;;;35.6;21.9;;;;;;;7.62;73.13477;938.4192;;;;
2023/03/03 13:54:23;;;;;;;36.3;23.1;;;;;;;7.42;72.89844;938.4409;;;;
2023/03/03 13:56:48;;;;;;;33.6;21.9;;;;;;;7.53;73.0293;938.4146;;;;
2023/03/03 13:59:16;;;;;;;33.1;21.3;;;;;;;7.8;72.65723;938.4166;;;;
2023/03/03 14:01:44;;;;;;;35.7;22.6;;;;;;;7.88;71.36523;938.401;;;;
2023/03/03 14:04:14;;;;;;;38.8;22.9;;;;;;;7.83;71.99023;938.4561;;;;
2023/03/03 14:06:39;;;;;;;36.3;21.6;;;;;;;7.98;71.73438;938.4551;;;;
2023/03/03 14:09:06;;;;;;;33.3;21.5;;;;;;;7.88;71.5127;938.4058;;;;
2023/03/03 14:11:32;;;;;;;33.7;21.8;;;;;;;7.74;72.04492;938.3931;;;;
2023/03/03 14:13:58;;;;;;;32;21.1;;;;;;;7.68;72.06836;938.4117;;;;
2023/03/03 14:16:23;;;;;;;36.3;21.9;;;;;;;7.67;72.50879;938.4433;;;;
2023/03/03 14:18:48;;;;;;;34.4;22;;;;;;;7.5;72.95605;938.3752;;;;
2023/03/03 14:21:13;;;;;;;34.1;21.5;;;;;;;7.61;73.05566;938.2955;;;;
2023/03/03 14:23:38;;;;;;;34.3;21.8;;;;;;;7.83;73.08008;938.3039;;;;
2023/03/03 14:26:08;;;;;;;31.3;21;;;;;;;7.83;72.40039;938.3477;;;;
2023/03/03 14:28:33;;;;;;;34.6;20.9;;;;;;;7.69;72.11523;938.3945;;;;
2023/03/03 14:30:59;;;;;;;35.2;20.8;;;;;;;7.56;72.7627;938.4423;;;;
2023/03/03 14:33:25;;;;;;;34.5;21.2;;;;;;;7.55;73.4873;938.4389;;;;
2023/03/03 14:35:49;;;;;;;34;21.3;;;;;;;7.61;72.85156;938.3842;;;;
2023/03/03 14:38:14;;;;;;;30.3;19.6;;;;;;;7.73;72.30469;938.3335;;;;
2023/03/03 14:40:41;;;;;;;32.5;20.6;;;;;;;7.78;72.37988;938.2869;;;;